createdAt,value
2022-09-27T00:00:51.950Z,15.08
2022-09-27T00:03:20.323Z,15.04
2022-09-27T00:05:48.669Z,15.02
2022-09-27T00:08:17.079Z,14.97
2022-09-27T00:10:45.479Z,14.94
2022-09-27T00:13:13.817Z,14.91
2022-09-27T00:15:42.282Z,14.87
2022-09-27T00:18:12.276Z,14.84
2022-09-27T00:20:40.670Z,14.80
2022-09-27T00:23:08.960Z,14.77
2022-09-27T00:25:37.458Z,14.77
2022-09-27T00:28:07.950Z,14.74
2022-09-27T00:30:36.617Z,14.71
2022-09-27T00:33:05.197Z,14.65
2022-09-27T00:35:35.001Z,14.61
2022-09-27T00:38:03.408Z,14.54
2022-09-27T00:40:31.827Z,14.51
2022-09-27T00:43:00.469Z,14.47
2022-09-27T00:45:28.866Z,14.46
2022-09-27T00:48:00.693Z,14.54
2022-09-27T00:50:34.027Z,14.59
2022-09-27T00:53:13.663Z,14.66
2022-09-27T00:55:46.383Z,14.74
2022-09-27T00:58:18.997Z,14.78
2022-09-27T01:00:52.458Z,14.83
2022-09-27T01:03:26.960Z,14.87
2022-09-27T01:05:56.027Z,14.91
2022-09-27T01:08:25.871Z,14.93
2022-09-27T01:11:09.008Z,14.95
2022-09-27T01:13:45.391Z,14.94
2022-09-27T01:16:25.642Z,14.92
2022-09-27T01:19:07.662Z,14.95
2022-09-27T01:21:47.711Z,14.97
2022-09-27T01:24:45.309Z,15.00
2022-09-27T01:27:59.956Z,14.98
2022-09-27T01:30:37.288Z,15.02
2022-09-27T01:33:25.366Z,15.06
2022-09-27T01:36:12.215Z,15.07
2022-09-27T01:38:52.680Z,15.07
2022-09-27T01:41:30.677Z,15.08
2022-09-27T01:44:26.122Z,15.08
2022-09-27T01:47:05.603Z,15.06
2022-09-27T01:49:53.768Z,15.06
2022-09-27T01:52:25.789Z,15.07
2022-09-27T01:54:58.854Z,15.06
2022-09-27T01:57:44.639Z,15.07
2022-09-27T02:00:19.480Z,15.11
2022-09-27T02:02:54.617Z,15.16
2022-09-27T02:05:37.008Z,15.18
2022-09-27T02:08:24.371Z,15.14
2022-09-27T02:10:59.725Z,15.15
2022-09-27T02:13:39.332Z,15.18
2022-09-27T02:16:34.984Z,15.13
2022-09-27T02:19:12.153Z,15.15
2022-09-27T02:21:48.193Z,15.17
2022-09-27T02:24:25.736Z,15.18
2022-09-27T02:27:03.101Z,15.19
2022-09-27T02:29:38.907Z,15.18
2022-09-27T02:32:08.102Z,15.16
2022-09-27T02:34:38.856Z,15.14
2022-09-27T02:37:07.728Z,15.09
2022-09-27T02:39:37.855Z,15.09
2022-09-27T02:42:12.900Z,15.08
2022-09-27T02:44:44.346Z,15.10
2022-09-27T02:47:59.003Z,15.06
2022-09-27T02:50:45.981Z,15.06
2022-09-27T02:53:41.148Z,15.04
2022-09-27T02:56:45.359Z,15.04
2022-09-27T02:59:45.332Z,15.02
2022-09-27T03:02:38.339Z,15.04
2022-09-27T03:05:40.959Z,15.03
2022-09-27T03:08:09.848Z,15.04
2022-09-27T03:10:38.246Z,15.06
2022-09-27T03:13:07.019Z,15.02
2022-09-27T03:15:37.819Z,14.99
2022-09-27T03:18:07.772Z,14.97
2022-09-27T03:20:48.381Z,14.89
2022-09-27T03:23:19.145Z,14.81
2022-09-27T03:25:47.666Z,14.71
2022-09-27T03:28:16.368Z,14.68
2022-09-27T03:30:47.265Z,14.59
2022-09-27T03:33:33.746Z,14.49
2022-09-27T03:36:09.103Z,14.42
2022-09-27T03:38:37.464Z,14.36
2022-09-27T03:41:07.590Z,14.32
2022-09-27T03:43:36.419Z,14.34
2022-09-27T03:46:06.386Z,14.36
2022-09-27T03:48:34.873Z,14.37
2022-09-27T03:51:04.604Z,14.35
2022-09-27T03:53:44.003Z,14.34
2022-09-27T03:56:14.998Z,14.30
2022-09-27T03:58:43.456Z,14.29
2022-09-27T04:01:12.493Z,14.26
2022-09-27T04:03:42.450Z,14.21
2022-09-27T04:06:30.412Z,14.20
2022-09-27T04:09:00.273Z,14.23
2022-09-27T04:11:41.868Z,14.29
2022-09-27T04:14:13.120Z,14.35
2022-09-27T04:17:01.306Z,14.41
2022-09-27T04:19:44.662Z,14.48
2022-09-27T04:22:13.829Z,14.53
2022-09-27T04:24:43.591Z,14.56
2022-09-27T04:27:23.862Z,14.51
2022-09-27T04:29:53.310Z,14.46
2022-09-27T04:32:45.273Z,14.38
2022-09-27T04:35:49.568Z,14.34
2022-09-27T04:38:20.408Z,14.36
2022-09-27T04:40:53.301Z,14.42
2022-09-27T04:43:22.363Z,14.49
2022-09-27T04:45:50.809Z,14.54
2022-09-27T04:48:19.378Z,14.61
2022-09-27T04:50:48.082Z,14.66
2022-09-27T04:53:17.170Z,14.73
2022-09-27T04:55:47.530Z,14.77
2022-09-27T04:58:17.802Z,14.80
2022-09-27T05:00:48.099Z,14.82
2022-09-27T05:03:37.006Z,14.81
2022-09-27T05:06:15.612Z,14.83
2022-09-27T05:08:47.658Z,14.81
2022-09-27T05:11:27.546Z,14.78
2022-09-27T05:14:27.411Z,14.74
2022-09-27T05:17:10.116Z,14.68
2022-09-27T05:19:56.920Z,14.60
2022-09-27T05:22:34.273Z,14.55
2022-09-27T05:25:03.303Z,14.51
2022-09-27T05:27:35.318Z,14.41
2022-09-27T05:30:08.307Z,14.35
2022-09-27T05:33:08.873Z,14.25
2022-09-27T05:36:02.327Z,14.19
2022-09-27T05:38:35.334Z,14.12
2022-09-27T05:41:09.161Z,14.11
2022-09-27T05:43:47.800Z,14.12
2022-09-27T05:46:17.998Z,14.12
2022-09-27T05:48:49.081Z,14.10
2022-09-27T05:51:19.590Z,14.06
2022-09-27T05:53:50.481Z,14.04
2022-09-27T05:56:37.035Z,14.00
2022-09-27T05:59:24.088Z,13.95
2022-09-27T06:02:36.741Z,13.90
2022-09-27T06:05:41.623Z,13.82
2022-09-27T06:08:24.486Z,13.83
2022-09-27T06:14:44.469Z,13.81
2022-09-27T06:17:38.111Z,13.82
2022-09-27T06:20:30.662Z,13.88
2022-09-27T06:23:12.794Z,13.94
2022-09-27T06:25:42.617Z,13.97
2022-09-27T06:28:24.914Z,14.03
2022-09-27T06:30:59.288Z,14.12
2022-09-27T06:33:35.795Z,14.28
2022-09-27T06:36:21.964Z,14.47
2022-09-27T06:39:06.973Z,14.70
2022-09-27T06:42:53.464Z,14.87
2022-09-27T06:46:07.368Z,15.04
2022-09-27T06:49:20.757Z,14.93
2022-09-27T06:51:58.716Z,15.08
2022-09-27T06:54:58.275Z,15.06
2022-09-27T06:57:49.466Z,15.15
2022-09-27T07:00:29.541Z,15.22
2022-09-27T07:03:18.353Z,15.54
2022-09-27T07:06:22.659Z,16.04
2022-09-27T07:12:09.243Z,16.62
2022-09-27T07:14:44.894Z,17.45
2022-09-27T07:17:31.239Z,18.30
2022-09-27T07:20:18.638Z,18.74
2022-09-27T07:23:21.545Z,19.15
2022-09-27T07:26:39.850Z,19.60
2022-09-27T07:32:36.481Z,20.12
2022-09-27T07:35:30.424Z,19.82
2022-09-27T07:50:29.528Z,18.11
2022-09-27T07:56:24.427Z,19.30
2022-09-27T07:59:02.336Z,19.10
2022-09-27T08:02:04.795Z,18.59
2022-09-27T08:04:34.613Z,18.41
2022-09-27T08:07:04.428Z,19.43
2022-09-27T08:09:33.050Z,19.74
2022-09-27T08:12:01.391Z,19.56
2022-09-27T08:14:30.116Z,19.19
2022-09-27T08:16:59.086Z,18.88
2022-09-27T08:19:30.456Z,18.56
2022-09-27T08:22:22.928Z,18.32
2022-09-27T08:25:01.715Z,18.12
2022-09-27T08:27:42.021Z,18.03
2022-09-27T08:30:20.877Z,17.85
2022-09-27T08:32:49.190Z,17.72
2022-09-27T08:35:17.600Z,17.66
2022-09-27T08:37:54.726Z,18.60
2022-09-27T08:40:27.758Z,19.94
2022-09-27T08:43:05.038Z,21.49
2022-09-27T08:45:38.830Z,22.75
2022-09-27T08:48:13.220Z,23.68
2022-09-27T08:50:45.765Z,24.69
2022-09-27T08:53:22.953Z,25.38
2022-09-27T08:55:54.533Z,25.04
2022-09-27T08:58:28.659Z,24.53
2022-09-27T09:01:00.621Z,24.50
2022-09-27T09:03:35.595Z,23.95
2022-09-27T09:06:16.246Z,22.94
2022-09-27T09:09:00.094Z,22.11
2022-09-27T09:11:58.250Z,21.49
2022-09-27T09:14:54.560Z,20.75
2022-09-27T09:17:37.610Z,20.34
2022-09-27T09:20:30.162Z,19.96
2022-09-27T09:23:22.396Z,19.71
2022-09-27T09:26:00.020Z,19.54
2022-09-27T09:28:44.119Z,19.35
2022-09-27T09:31:22.260Z,19.10
2022-09-27T09:33:55.380Z,19.08
2022-09-27T09:36:29.083Z,19.02
2022-09-27T09:39:00.981Z,18.98
2022-09-27T09:41:36.820Z,18.95
2022-09-27T09:44:12.094Z,19.02
2022-09-27T09:46:45.881Z,18.92
2022-09-27T09:49:20.172Z,18.78
2022-09-27T09:51:52.528Z,18.71
2022-09-27T09:54:26.024Z,18.62
2022-09-27T09:57:03.551Z,18.35
2022-09-27T09:59:39.339Z,18.16
2022-09-27T10:02:24.503Z,18.06
2022-09-27T10:04:54.805Z,18.02
2022-09-27T10:07:25.206Z,18.00
2022-09-27T10:09:54.883Z,18.02
2022-09-27T10:12:24.680Z,18.11
2022-09-27T10:14:55.490Z,18.17
2022-09-27T10:17:27.371Z,18.20
2022-09-27T10:19:59.989Z,18.14
2022-09-27T10:22:36.727Z,18.02
2022-09-27T10:25:16.620Z,17.94
2022-09-27T10:27:48.905Z,17.95
2022-09-27T10:30:30.165Z,17.91
2022-09-27T10:33:01.925Z,17.89
2022-09-27T10:35:42.670Z,17.67
2022-09-27T10:38:24.579Z,17.77
2022-09-27T10:41:00.018Z,17.82
2022-09-27T10:43:34.169Z,17.92
2022-09-27T10:46:27.043Z,17.94
2022-09-27T10:57:02.829Z,17.97
2022-09-27T11:03:25.553Z,18.17
2022-09-27T11:05:55.381Z,18.38
2022-09-27T11:08:30.083Z,18.48
2022-09-27T11:46:38.636Z,18.39
2022-09-27T11:49:46.233Z,18.32
2022-09-27T11:52:57.228Z,18.42
2022-09-27T11:56:10.770Z,18.55
2022-09-27T11:58:59.649Z,18.74
2022-09-27T12:01:47.173Z,18.79
2022-09-27T12:24:45.132Z,18.44
2022-09-27T12:28:28.832Z,18.42
2022-09-27T12:29:53.306Z,18.38
2022-09-27T12:35:44.173Z,18.47
2022-09-27T12:38:49.298Z,18.52
2022-09-27T12:41:38.037Z,18.53
2022-09-27T12:44:29.732Z,18.52
2022-09-27T12:47:24.099Z,18.48
2022-09-27T12:50:07.298Z,18.44
2022-09-27T12:52:59.539Z,18.45
2022-09-27T12:55:44.343Z,18.38
2022-09-27T12:58:41.963Z,18.38
2022-09-27T13:01:21.388Z,18.42
2022-09-27T13:04:07.362Z,18.46
2022-09-27T13:06:57.359Z,18.46
2022-09-27T13:10:01.672Z,18.24
2022-09-27T13:12:34.236Z,18.22
2022-09-27T13:15:04.583Z,17.95
2022-09-27T13:17:54.474Z,18.08
2022-09-27T13:21:21.497Z,18.16
2022-09-27T13:24:35.069Z,18.05
2022-09-27T13:27:48.643Z,18.02
2022-09-27T13:31:03.888Z,18.04
2022-09-27T13:34:07.446Z,18.07
2022-09-27T13:37:30.860Z,17.98
2022-09-27T14:24:03.848Z,17.84
2022-09-27T14:52:35.599Z,17.91
2022-09-27T14:55:13.949Z,18.00
2022-09-27T14:57:48.749Z,17.98
2022-09-27T15:00:20.739Z,18.02
2022-09-27T15:02:50.964Z,17.99
2022-09-27T15:05:21.746Z,18.01
2022-09-27T15:07:52.782Z,18.05
2022-09-27T15:10:23.283Z,18.02
2022-09-27T15:12:57.940Z,18.00
2022-09-27T15:15:31.356Z,18.02
2022-09-27T15:18:00.472Z,18.01
2022-09-27T15:20:34.844Z,17.99
2022-09-27T15:45:30.096Z,17.85
2022-09-27T15:48:43.495Z,17.89
2022-09-27T15:53:25.958Z,17.79
2022-09-27T15:55:56.575Z,17.81
2022-09-27T15:58:31.354Z,17.83
2022-09-27T16:01:48.962Z,17.78
2022-09-27T16:04:18.783Z,17.79
2022-09-27T16:10:00.934Z,17.78
2022-09-27T16:12:31.943Z,17.77
2022-09-27T16:15:25.414Z,17.77
2022-09-27T16:18:10.102Z,17.77
2022-09-27T16:20:55.088Z,17.75
2022-09-27T16:23:23.549Z,17.74
2022-09-27T16:26:30.359Z,17.67
2022-09-27T16:28:58.777Z,17.66
2022-09-27T16:31:39.515Z,17.61
2022-09-27T16:34:12.254Z,17.61
2022-09-27T16:37:37.930Z,17.47
2022-09-27T16:40:15.509Z,17.48
2022-09-27T16:43:08.341Z,17.44
2022-09-27T16:45:50.771Z,17.38
2022-09-27T16:48:27.671Z,17.43
2022-09-27T16:51:21.337Z,17.42
2022-09-27T16:53:53.757Z,17.41
2022-09-27T16:56:46.177Z,17.20
2022-09-27T16:59:29.358Z,17.27
2022-09-27T17:01:58.297Z,17.20
2022-09-27T17:04:27.606Z,17.23
2022-09-27T17:07:20.526Z,17.28
2022-09-27T17:11:15.741Z,17.19
2022-09-27T17:12:46.194Z,17.23
2022-09-27T17:15:16.376Z,17.24
2022-09-27T17:17:45.329Z,17.27
2022-09-27T17:20:13.841Z,17.29
2022-09-27T17:22:42.081Z,17.23
2022-09-27T17:25:10.802Z,17.24
2022-09-27T17:37:27.513Z,17.13
2022-09-27T17:41:10.559Z,17.12
2022-09-27T18:04:26.706Z,16.85
2022-09-27T18:08:18.867Z,16.77
2022-09-27T18:12:20.003Z,16.78
2022-09-27T18:15:02.409Z,16.85
2022-09-27T18:18:53.904Z,16.77
2022-09-27T18:32:38.037Z,16.72
2022-09-27T18:55:45.132Z,16.50
2022-09-27T19:08:29.799Z,16.42
2022-09-27T19:34:29.288Z,16.57
2022-09-27T19:37:12.200Z,16.57
2022-09-27T19:40:47.321Z,16.59
2022-09-27T19:43:18.389Z,16.52
2022-09-27T19:45:48.492Z,16.50
2022-09-27T19:48:52.763Z,16.51
2022-09-27T19:55:16.490Z,16.59
2022-09-27T19:58:51.300Z,16.54
2022-09-27T20:09:50.819Z,16.54
2022-09-27T20:36:19.535Z,16.75
2022-09-27T20:39:01.996Z,16.78
2022-09-27T20:41:39.722Z,16.79
2022-09-27T20:44:10.855Z,16.72
2022-09-27T20:46:40.421Z,16.79
2022-09-27T20:49:10.427Z,16.76
2022-09-27T20:51:42.799Z,16.79
2022-09-27T20:54:14.419Z,16.70
2022-09-27T20:56:44.861Z,16.73
2022-09-27T20:59:18.675Z,16.75
2022-09-27T21:01:49.984Z,16.77
2022-09-27T21:04:23.529Z,16.76
2022-09-27T21:06:53.375Z,16.77
2022-09-27T21:09:21.675Z,16.79
2022-09-27T21:11:52.027Z,16.75
2022-09-27T21:14:20.503Z,16.75
2022-09-27T21:16:52.526Z,16.77
2022-09-27T21:19:21.139Z,16.81
2022-09-27T21:21:52.082Z,16.87
2022-09-27T21:24:21.752Z,16.88
2022-09-27T21:26:50.082Z,16.89
2022-09-27T21:29:21.176Z,16.93
2022-09-27T21:31:52.338Z,16.93
2022-09-27T21:34:23.558Z,16.86
2022-09-27T21:36:58.447Z,16.93
2022-09-27T21:39:28.194Z,16.93
2022-09-27T21:42:02.803Z,16.94
2022-09-27T21:44:31.130Z,16.90
2022-09-27T21:47:01.245Z,16.90
2022-09-27T21:49:30.582Z,16.85
2022-09-27T21:51:58.790Z,16.93
2022-09-27T21:54:28.505Z,16.87
2022-09-27T21:56:56.841Z,16.86
2022-09-27T21:59:25.251Z,16.90
2022-09-27T22:01:57.069Z,16.92
2022-09-27T22:04:25.443Z,16.83
2022-09-27T22:06:59.559Z,16.80
2022-09-27T22:09:29.500Z,16.85
2022-09-27T22:11:57.755Z,16.88
2022-09-27T22:14:26.206Z,16.85
2022-09-27T22:16:54.511Z,16.86
2022-09-27T22:19:23.551Z,16.87
2022-09-27T22:21:54.359Z,16.88
2022-09-27T22:24:25.417Z,16.85
2022-09-27T22:26:55.999Z,16.83
2022-09-27T22:29:25.071Z,16.84
2022-09-27T22:31:53.522Z,16.79
2022-09-27T22:34:29.173Z,16.80
2022-09-27T22:37:02.241Z,16.76
2022-09-27T22:39:34.146Z,16.80
2022-09-27T22:42:04.145Z,16.84
2022-09-27T22:44:33.575Z,16.83
2022-09-27T22:47:01.800Z,16.80
2022-09-27T22:49:30.018Z,16.79
2022-09-27T22:51:58.451Z,16.82
2022-09-27T22:54:26.817Z,16.81
2022-09-27T22:56:57.381Z,16.80
2022-09-27T22:59:27.809Z,16.82
2022-09-27T23:01:58.973Z,16.82
2022-09-27T23:04:27.457Z,16.76
2022-09-27T23:06:55.725Z,16.71
2022-09-27T23:09:24.724Z,16.71
2022-09-27T23:11:53.264Z,16.64
2022-09-27T23:14:22.095Z,16.68
2022-09-27T23:17:03.585Z,16.64
2022-09-27T23:19:37.590Z,16.66
2022-09-27T23:22:05.968Z,16.67
2022-09-27T23:24:55.937Z,16.65
2022-09-27T23:28:01.630Z,16.64
2022-09-27T23:30:38.017Z,16.66
2022-09-27T23:33:08.477Z,16.71
2022-09-27T23:35:41.162Z,16.72
2022-09-27T23:38:14.781Z,16.68
2022-09-27T23:40:43.353Z,16.69
2022-09-27T23:43:11.763Z,16.70
2022-09-27T23:45:40.008Z,16.71
2022-09-27T23:48:11.066Z,16.73
2022-09-27T23:50:39.952Z,16.68
2022-09-27T23:53:08.245Z,16.65
2022-09-27T23:55:38.502Z,16.65
2022-09-27T23:58:07.324Z,16.58
